createdAt,value
2022-12-03T00:03:52.705Z,13.07
2022-12-03T00:08:06.994Z,12.43
2022-12-03T00:12:19.317Z,13.27
2022-12-03T00:16:32.315Z,13.15
2022-12-03T00:20:51.079Z,12.23
2022-12-03T00:25:03.410Z,12.40
2022-12-03T00:29:25.705Z,14.25
2022-12-03T00:33:47.962Z,11.55
2022-12-03T00:38:00.344Z,12.20
2022-12-03T00:42:12.640Z,11.98
2022-12-03T00:46:27.374Z,11.13
2022-12-03T00:50:39.669Z,9.32
2022-12-03T00:54:52.314Z,12.38
2022-12-03T00:59:04.794Z,11.80
2022-12-03T01:03:17.110Z,12.35
2022-12-03T01:07:29.624Z,14.32
2022-12-03T01:11:42.219Z,11.80
2022-12-03T01:15:54.513Z,10.63
2022-12-03T01:20:08.234Z,10.73
2022-12-03T01:24:21.318Z,11.98
2022-12-03T01:28:33.643Z,9.82
2022-12-03T01:32:45.971Z,9.48
2022-12-03T01:36:58.688Z,9.50
2022-12-03T01:41:12.087Z,9.05
2022-12-03T01:45:24.798Z,9.20
2022-12-03T01:49:42.966Z,8.73
2022-12-03T01:53:55.284Z,8.50
2022-12-03T01:58:20.969Z,8.20
2022-12-03T02:02:33.887Z,8.88
2022-12-03T02:06:46.324Z,7.38
2022-12-03T02:11:03.785Z,7.07
2022-12-03T02:15:16.268Z,8.25
2022-12-03T02:19:32.808Z,8.05
2022-12-03T02:24:06.802Z,6.82
2022-12-03T02:28:29.170Z,6.72
2022-12-03T02:32:41.547Z,5.57
2022-12-03T02:36:53.877Z,6.57
2022-12-03T02:41:32.798Z,7.72
2022-12-03T02:45:48.285Z,8.60
2022-12-03T02:50:01.352Z,7.28
2022-12-03T02:54:13.840Z,7.43
2022-12-03T02:58:27.782Z,8.57
2022-12-03T03:02:42.548Z,8.95
2022-12-03T03:06:54.970Z,8.98
2022-12-03T03:11:07.234Z,6.88
2022-12-03T03:15:19.648Z,7.63
2022-12-03T03:19:31.966Z,7.55
2022-12-03T03:23:44.367Z,8.13
2022-12-03T03:27:56.692Z,7.25
2022-12-03T03:32:09.078Z,8.85
2022-12-03T03:36:21.697Z,8.50
2022-12-03T03:40:34.254Z,7.93
2022-12-03T03:44:56.615Z,8.02
2022-12-03T03:49:08.999Z,7.95
2022-12-03T03:53:22.510Z,7.60
2022-12-03T03:57:34.908Z,6.78
2022-12-03T04:01:47.384Z,9.02
2022-12-03T04:05:59.690Z,6.95
2022-12-03T04:10:39.455Z,7.55
2022-12-03T04:14:52.091Z,7.25
2022-12-03T04:19:04.573Z,7.75
2022-12-03T04:28:01.480Z,6.85
2022-12-03T04:32:32.191Z,6.57
2022-12-03T04:36:54.578Z,8.52
2022-12-03T04:41:07.009Z,9.15
2022-12-03T04:45:19.309Z,8.43
2022-12-03T04:49:32.050Z,9.32
2022-12-03T04:53:46.387Z,8.88
2022-12-03T04:57:58.935Z,8.63
2022-12-03T05:02:21.265Z,10.13
2022-12-03T05:06:33.626Z,7.20
2022-12-03T05:10:45.874Z,7.43
2022-12-03T05:14:58.191Z,8.13
2022-12-03T05:19:20.473Z,8.30
2022-12-03T05:23:32.914Z,6.40
2022-12-03T05:27:55.171Z,7.53
2022-12-03T05:32:07.462Z,7.03
2022-12-03T05:36:19.750Z,5.90
2022-12-03T05:40:32.061Z,7.10
2022-12-03T05:44:44.334Z,6.13
2022-12-03T05:48:56.694Z,6.18
2022-12-03T05:53:09.722Z,7.07
2022-12-03T05:57:21.996Z,6.45
2022-12-03T06:01:35.188Z,6.40
2022-12-03T06:05:47.492Z,5.50
2022-12-03T06:09:59.835Z,6.32
2022-12-03T06:14:12.107Z,5.95
2022-12-03T06:18:24.428Z,5.22
2022-12-03T06:22:36.754Z,5.70
2022-12-03T06:26:49.089Z,6.45
2022-12-03T06:31:01.614Z,5.70
2022-12-03T06:35:17.231Z,5.35
2022-12-03T06:39:29.555Z,5.70
2022-12-03T06:43:51.858Z,5.55
2022-12-03T06:48:04.232Z,5.13
2022-12-03T06:52:25.924Z,6.72
2022-12-03T06:56:44.869Z,7.40
2022-12-03T07:00:57.775Z,8.20
2022-12-03T07:05:10.550Z,7.47
2022-12-03T07:09:22.867Z,7.03
2022-12-03T07:13:35.121Z,8.55
2022-12-03T07:17:47.403Z,7.57
2022-12-03T07:21:59.701Z,9.90
2022-12-03T07:26:12.059Z,8.30
2022-12-03T07:30:26.297Z,8.88
2022-12-03T07:34:38.571Z,7.22
2022-12-03T07:38:50.868Z,7.25
2022-12-03T07:43:03.191Z,7.65
2022-12-03T07:47:15.575Z,5.57
2022-12-03T07:51:32.391Z,8.40
2022-12-03T07:55:44.938Z,7.82
2022-12-03T07:59:57.238Z,8.57
2022-12-03T08:04:12.473Z,8.25
2022-12-03T08:08:25.876Z,9.15
2022-12-03T08:12:42.676Z,8.23
2022-12-03T08:16:55.026Z,8.18
2022-12-03T08:21:14.822Z,6.80
2022-12-03T08:25:30.327Z,10.52
2022-12-03T08:29:42.573Z,8.20
2022-12-03T08:34:00.154Z,7.25
2022-12-03T08:38:13.694Z,9.60
2022-12-03T08:42:42.555Z,8.55
2022-12-03T08:47:02.827Z,7.47
2022-12-03T08:51:26.307Z,8.50
2022-12-03T08:55:40.649Z,8.15
2022-12-03T08:59:58.871Z,8.70
2022-12-03T09:04:39.816Z,8.98
2022-12-03T09:08:52.164Z,8.98
2022-12-03T09:13:04.465Z,10.65
2022-12-03T09:17:17.068Z,7.65
2022-12-03T09:21:29.535Z,7.15
2022-12-03T09:25:43.298Z,7.70
2022-12-03T09:29:56.509Z,8.90
2022-12-03T09:34:09.539Z,8.20
2022-12-03T09:38:23.881Z,7.35
2022-12-03T09:42:46.554Z,8.35
2022-12-03T09:47:01.442Z,6.90
2022-12-03T09:51:13.934Z,9.93
2022-12-03T09:55:28.339Z,9.02
2022-12-03T09:59:40.678Z,9.07
2022-12-03T10:03:53.852Z,7.50
2022-12-03T10:08:09.139Z,7.18
2022-12-03T10:12:25.590Z,7.72
2022-12-03T10:16:40.925Z,6.53
2022-12-03T10:20:54.023Z,8.57
2022-12-03T10:25:15.805Z,7.90
2022-12-03T10:29:37.045Z,7.38
2022-12-03T10:33:59.028Z,7.43
2022-12-03T10:38:17.904Z,8.57
2022-12-03T10:42:35.164Z,7.77
2022-12-03T10:47:06.699Z,6.60
2022-12-03T10:51:23.475Z,7.88
2022-12-03T10:55:41.695Z,8.98
2022-12-03T10:59:53.962Z,8.50
2022-12-03T11:04:06.382Z,7.50
2022-12-03T11:08:33.290Z,9.15
2022-12-03T11:13:23.515Z,8.65
2022-12-03T11:17:44.590Z,8.52
2022-12-03T11:22:06.805Z,9.68
2022-12-03T11:26:40.095Z,9.52
2022-12-03T11:30:52.352Z,9.63
2022-12-03T11:35:25.914Z,8.75
2022-12-03T11:39:50.413Z,8.65
2022-12-03T11:44:06.578Z,8.18
2022-12-03T11:48:27.248Z,7.47
2022-12-03T11:52:43.520Z,9.05
2022-12-03T11:57:26.486Z,9.00
2022-12-03T12:01:43.706Z,9.88
2022-12-03T12:06:22.487Z,8.63
2022-12-03T12:10:49.830Z,7.90
2022-12-03T12:15:34.051Z,7.32
2022-12-03T12:19:51.087Z,9.18
2022-12-03T12:24:47.681Z,7.00
2022-12-03T12:28:59.950Z,9.43
2022-12-03T12:33:17.244Z,7.82
2022-12-03T12:37:48.116Z,8.82
2022-12-03T12:42:01.735Z,9.15
2022-12-03T12:46:46.094Z,9.05
2022-12-03T12:50:49.246Z,9.07
2022-12-03T12:55:04.885Z,10.20
2022-12-03T12:59:25.063Z,10.27
2022-12-03T13:03:40.019Z,9.85
2022-12-03T13:07:53.684Z,10.98
2022-12-03T13:12:18.279Z,8.10
2022-12-03T13:16:33.430Z,10.90
2022-12-03T13:20:45.750Z,10.52
2022-12-03T13:25:01.731Z,10.45
2022-12-03T13:29:19.466Z,9.23
2022-12-03T13:33:32.251Z,9.07
2022-12-03T13:37:45.728Z,7.93
2022-12-03T13:42:38.869Z,11.32
2022-12-03T13:46:51.163Z,11.68
2022-12-03T13:51:33.647Z,9.77
2022-12-03T13:55:48.981Z,8.82
2022-12-03T14:00:01.305Z,8.50
2022-12-03T14:04:13.649Z,9.65
2022-12-03T14:08:25.905Z,10.32
2022-12-03T14:12:38.181Z,8.73
2022-12-03T14:16:58.238Z,9.60
2022-12-03T14:25:24.231Z,8.55
2022-12-03T14:29:36.537Z,9.52
2022-12-03T14:33:48.800Z,8.23
2022-12-03T14:38:01.171Z,11.63
2022-12-03T14:42:16.242Z,10.35
2022-12-03T14:46:34.689Z,8.10
2022-12-03T14:50:46.942Z,10.15
2022-12-03T14:55:09.621Z,10.93
2022-12-03T14:59:27.408Z,7.40
2022-12-03T15:03:40.256Z,8.48
2022-12-03T15:07:52.697Z,8.68
2022-12-03T15:12:05.571Z,9.15
2022-12-03T15:16:17.895Z,9.52
2022-12-03T15:20:30.594Z,9.82
2022-12-03T15:24:42.855Z,9.57
2022-12-03T15:28:55.132Z,10.18
2022-12-03T15:33:07.475Z,9.15
2022-12-03T15:37:20.273Z,7.35
2022-12-03T15:41:32.615Z,8.00
2022-12-03T15:45:45.230Z,7.35
2022-12-03T15:49:57.564Z,7.75
2022-12-03T15:54:19.863Z,7.63
2022-12-03T15:58:32.140Z,7.70
2022-12-03T16:02:50.816Z,7.68
2022-12-03T16:07:14.807Z,7.68
2022-12-03T16:11:28.163Z,8.18
2022-12-03T16:15:40.479Z,7.53
2022-12-03T16:19:53.137Z,7.20
2022-12-03T16:24:06.087Z,6.93
2022-12-03T16:28:19.707Z,7.15
2022-12-03T16:32:31.986Z,7.03
2022-12-03T16:36:46.464Z,7.07
2022-12-03T16:40:58.740Z,7.30
2022-12-03T16:45:41.416Z,7.05
2022-12-03T16:49:53.883Z,9.30
2022-12-03T16:54:06.373Z,7.90
2022-12-03T16:58:21.971Z,7.65
2022-12-03T17:02:34.388Z,7.82
2022-12-03T17:06:46.686Z,6.28
2022-12-03T17:10:59.075Z,7.15
2022-12-03T17:15:11.810Z,6.75
2022-12-03T17:19:34.145Z,6.00
2022-12-03T17:23:49.551Z,6.82
2022-12-03T17:28:11.798Z,7.38
2022-12-03T17:32:24.074Z,6.03
2022-12-03T17:36:36.353Z,5.95
2022-12-03T17:40:48.627Z,8.65
2022-12-03T17:45:00.971Z,6.55
2022-12-03T17:49:13.265Z,8.93
2022-12-03T17:53:25.787Z,6.72
2022-12-03T17:57:39.131Z,6.72
2022-12-03T18:01:51.572Z,7.90
2022-12-03T18:06:04.704Z,8.40
2022-12-03T18:10:17.207Z,8.57
2022-12-03T18:14:29.479Z,7.93
2022-12-03T18:18:42.453Z,8.52
2022-12-03T18:22:54.760Z,7.85
2022-12-03T18:27:10.106Z,8.93
2022-12-03T18:31:23.528Z,7.22
2022-12-03T18:35:35.997Z,6.97
2022-12-03T18:39:53.639Z,8.50
2022-12-03T18:44:10.581Z,9.38
2022-12-03T18:48:23.109Z,8.23
2022-12-03T18:52:35.380Z,7.88
2022-12-03T18:56:47.690Z,9.60
2022-12-03T19:01:00.071Z,8.15
2022-12-03T19:05:12.477Z,8.80
2022-12-03T19:09:24.851Z,7.78
2022-12-03T19:13:37.161Z,8.45
2022-12-03T19:17:50.568Z,7.63
2022-12-03T19:22:02.942Z,8.07
2022-12-03T19:26:15.715Z,7.95
2022-12-03T19:30:27.997Z,7.45
2022-12-03T19:34:40.372Z,7.95
2022-12-03T19:38:57.091Z,7.82
2022-12-03T19:43:09.972Z,7.20
2022-12-03T19:47:25.354Z,8.75
2022-12-03T19:51:37.993Z,7.10
2022-12-03T19:55:50.393Z,7.60
2022-12-03T20:00:13.279Z,8.38
2022-12-03T20:04:25.594Z,6.35
2022-12-03T20:08:38.630Z,8.23
2022-12-03T20:12:50.894Z,6.45
2022-12-03T20:17:03.285Z,6.85
2022-12-03T20:21:17.121Z,6.72
2022-12-03T20:25:29.378Z,7.57
2022-12-03T20:29:42.067Z,6.63
2022-12-03T20:33:56.927Z,7.32
2022-12-03T20:38:09.218Z,5.78
2022-12-03T20:42:21.511Z,7.85
2022-12-03T20:46:34.393Z,8.30
2022-12-03T20:50:46.804Z,5.78
2022-12-03T20:54:59.071Z,7.40
2022-12-03T20:59:14.056Z,7.15
2022-12-03T21:03:28.245Z,7.50
2022-12-03T21:07:40.677Z,8.27
2022-12-03T21:11:53.119Z,6.90
2022-12-03T21:16:07.786Z,7.40
2022-12-03T21:20:23.015Z,6.55
2022-12-03T21:24:35.496Z,6.55
2022-12-03T21:28:49.401Z,7.30
2022-12-03T21:33:11.705Z,6.13
2022-12-03T21:37:23.959Z,6.43
2022-12-03T21:41:36.448Z,6.32
2022-12-03T21:45:49.017Z,6.75
2022-12-03T21:50:01.398Z,7.13
2022-12-03T21:54:13.670Z,7.53
2022-12-03T21:58:26.364Z,7.03
2022-12-03T22:02:40.978Z,6.35
2022-12-03T22:06:53.295Z,8.07
2022-12-03T22:11:11.967Z,6.32
2022-12-03T22:15:24.233Z,6.65
2022-12-03T22:19:37.239Z,6.80
2022-12-03T22:23:49.493Z,7.57
2022-12-03T22:28:01.791Z,6.38
2022-12-03T22:32:14.045Z,7.70
2022-12-03T22:36:26.323Z,6.82
2022-12-03T22:40:40.392Z,6.50
2022-12-03T22:44:52.760Z,6.15
2022-12-03T22:49:07.437Z,6.53
2022-12-03T22:53:20.699Z,8.13
2022-12-03T22:57:33.108Z,7.63
2022-12-03T23:01:48.745Z,8.45
2022-12-03T23:06:01.124Z,6.72
2022-12-03T23:10:13.407Z,7.03
2022-12-03T23:14:28.593Z,6.00
2022-12-03T23:18:40.874Z,6.90
2022-12-03T23:22:53.731Z,6.63
2022-12-03T23:27:06.020Z,6.85
2022-12-03T23:31:18.293Z,7.20
2022-12-03T23:35:30.758Z,7.68
2022-12-03T23:39:43.275Z,7.72
2022-12-03T23:43:57.297Z,7.05
2022-12-03T23:48:10.228Z,7.85
2022-12-03T23:52:22.507Z,6.40
2022-12-03T23:56:40.320Z,7.35
